Pagrindinis puslapis
METAR-TAF:

METAR-TAF

Oro uostai :

Rosh Pinna, Izraelis

platuma: 32-58-48N, ilguma: 035-34-12E, Aukštis: 281 m

Dabartinis oras

Ataskaita buvo paskelbta 12 valandos ir 11 minutes, ne 15:50 UTC
Vėjas 8 kt iš Šiaurės/Šiaurės Rytų
Temperatūra 25°C
Drėgmė 15%
Slėgis 1015 hPa
Matomumas 10 km arba daugiau
nėra debesų žemiau 1500 m ir nėra kamuolinių lietaus debesų

METAR: LLIB 121550Z 03008KT CAVOK 25/M03 Q1015

Laikas: 06:01 (04:01 UTC)

Prognozė

Ataskaita buvo paskelbta 16 valandos ir 53 minutes, ne 11:08 UTC
Prognozė galioja nuo 12 metu 12 UTC su 13 metu 12 UTC
Vėjas 7 kt iš Rytų/Pietryčių
Matomumas 10 km arba daugiau
nėra debesų žemiau 1500 m ir nėra kamuolinių lietaus debesų
Laikinai
nuo 12 metu 17 UTC su 13 metu 06 UTC
Vėjas 3 kt nuo kintamojo kryptimis

TAF: LLIB 121108Z 1212/1312 11007KT CAVOK TEMPO 1217/1306 VRB03KT TX29/1212Z TN16/1304Z

Orai ataskaitas ir orų prognozės (METAR, TAF).

turimą stotys yra geltonos ir raudonos taškus žemėlapyje.

Perkelti pele per norėdami pamatyti stoties vardą.

Tada spustelėkite, norėdami matyti oro stebėjimo ir prognozės.

Norėdami pakeisti žemėlapį: spustelėkite ant žalios mygtukų su juodo kryžiaus žemyn,; žalią mygtuką su brūkšneliu, jei norite nutolinti; arba žalių rodyklių gretimoms žemėlapius.


METAR-TAF: